Time;durP1;ratioP1;P1;durP2;ratioP2;P2;SDS_P1;SDS_P2;PMS_P1;PMS_P2;Temp;Humidity;BMP_temperature;BMP_pressure;BME280_temperature;BME280_humidity;BME280_pressure;Samples;Min_cycle;Max_cycle;Signal;HPM_P1;HPM_P2
2022/03/24 00:00:26;;;;;;;20.40;10.97;;;6.30;99.90;;;;;;5096048;28;20167;-63
2022/03/24 00:02:52;;;;;;;23.60;13.83;;;6.20;99.90;;;;;;5096531;28;20540;-64
2022/03/24 00:05:17;;;;;;;24.33;12.00;;;6.20;99.90;;;;;;5095590;28;20171;-65
2022/03/24 00:07:43;;;;;;;24.60;12.40;;;6.30;99.90;;;;;;5095675;28;20199;-64
2022/03/24 00:10:09;;;;;;;16.90;11.43;;;6.20;99.90;;;;;;5095942;28;20652;-65
2022/03/24 00:12:36;;;;;;;24.00;12.60;;;6.20;99.90;;;;;;5077639;28;20643;-64
2022/03/24 00:15:06;;;;;;;24.13;12.17;;;6.10;99.90;;;;;;5095448;28;20166;-63
2022/03/24 00:17:32;;;;;;;20.77;12.10;;;6.10;99.90;;;;;;5095278;28;20190;-63
2022/03/24 00:19:59;;;;;;;24.67;12.90;;;6.10;99.90;;;;;;5078126;28;20175;-64
2022/03/24 00:22:25;;;;;;;22.30;12.77;;;6.10;99.90;;;;;;5096687;28;20196;-64
2022/03/24 00:24:56;;;;;;;31.03;12.50;;;6.00;99.90;;;;;;5096159;28;20555;-64
2022/03/24 00:27:22;;;;;;;20.77;11.33;;;6.00;99.90;;;;;;5096423;28;20213;-64
2022/03/24 00:29:48;;;;;;;20.83;12.50;;;6.00;99.90;;;;;;5095539;28;20171;-66
2022/03/24 00:32:13;;;;;;;24.30;13.23;;;5.80;99.90;;;;;;5095828;28;20166;-65
2022/03/24 00:34:39;;;;;;;21.63;14.77;;;5.90;99.90;;;;;;5095298;28;20257;-65
2022/03/24 00:37:05;;;;;;;29.97;15.00;;;6.00;99.90;;;;;;5095839;28;20210;-64
2022/03/24 00:39:33;;;;;;;23.97;11.20;;;5.80;99.90;;;;;;5095040;28;20510;-63
2022/03/24 00:42:07;;;;;;;22.57;12.33;;;5.70;99.90;;;;;;5094121;28;20158;-64
2022/03/24 00:44:33;;;;;;;22.47;12.97;;;5.60;99.90;;;;;;5095093;28;20182;-64
2022/03/24 00:46:58;;;;;;;26.10;14.90;;;5.70;99.90;;;;;;5095212;28;20633;-64
2022/03/24 00:49:25;;;;;;;25.10;12.97;;;5.70;99.90;;;;;;5095705;28;20159;-64
2022/03/24 00:51:50;;;;;;;18.53;11.07;;;5.70;99.90;;;;;;5094987;28;20242;-64
2022/03/24 00:54:18;;;;;;;22.07;11.23;;;5.60;99.90;;;;;;5095213;28;20174;-64
2022/03/24 00:56:45;;;;;;;17.57;11.37;;;5.50;99.90;;;;;;5094861;28;20212;-63
2022/03/24 00:59:11;;;;;;;21.70;11.37;;;5.50;99.90;;;;;;5095167;28;20158;-65
2022/03/24 01:01:39;;;;;;;25.63;15.30;;;5.50;99.90;;;;;;5077165;28;20178;-64
2022/03/24 01:04:06;;;;;;;23.83;13.00;;;5.50;99.90;;;;;;5076761;28;20174;-64
2022/03/24 01:06:34;;;;;;;23.40;11.73;;;5.40;99.90;;;;;;5095905;28;20200;-63
2022/03/24 01:09:01;;;;;;;26.53;16.90;;;5.40;99.90;;;;;;5095549;28;20167;-63
2022/03/24 01:11:27;;;;;;;29.23;15.40;;;5.40;99.90;;;;;;5094660;28;20588;-67
2022/03/24 01:13:53;;;;;;;32.20;17.43;;;5.40;99.90;;;;;;5095002;28;20249;-63
2022/03/24 01:16:18;;;;;;;25.53;16.10;;;5.30;99.90;;;;;;5094743;28;20639;-64
2022/03/24 01:18:45;;;;;;;23.47;12.33;;;5.30;99.90;;;;;;5094634;28;20165;-64
2022/03/24 01:21:12;;;;;;;25.97;16.33;;;5.30;99.90;;;;;;5094991;28;20170;-65
2022/03/24 01:23:37;;;;;;;30.63;16.43;;;5.30;99.90;;;;;;5094462;28;20187;-65
2022/03/24 01:26:05;;;;;;;25.83;16.33;;;5.30;99.90;;;;;;5094219;28;20206;-64
2022/03/24 01:28:33;;;;;;;24.40;13.13;;;5.30;99.90;;;;;;5094759;28;20621;-64
2022/03/24 01:30:58;;;;;;;24.43;14.60;;;5.30;99.90;;;;;;5094163;28;20238;-63
2022/03/24 01:33:24;;;;;;;27.30;14.63;;;5.30;99.90;;;;;;5093987;28;20260;-63
2022/03/24 01:35:50;;;;;;;25.67;16.10;;;5.40;99.90;;;;;;5093685;28;20180;-64
2022/03/24 01:38:17;;;;;;;28.43;16.80;;;5.30;99.90;;;;;;5094308;28;20183;-64
2022/03/24 01:40:44;;;;;;;21.50;11.87;;;5.30;99.90;;;;;;5094244;28;20177;-65
2022/03/24 01:43:11;;;;;;;29.13;16.57;;;5.30;99.90;;;;;;5093722;28;20171;-64
2022/03/24 01:45:37;;;;;;;21.10;13.20;;;5.20;99.90;;;;;;5094342;28;20157;-64
2022/03/24 01:48:04;;;;;;;32.10;17.47;;;5.10;99.90;;;;;;5094441;28;20596;-64
2022/03/24 01:50:29;;;;;;;28.07;17.20;;;5.10;99.90;;;;;;5093616;28;20155;-63
2022/03/24 01:52:55;;;;;;;32.93;16.57;;;5.00;99.90;;;;;;5093656;28;20674;-64
2022/03/24 01:55:21;;;;;;;28.60;16.10;;;5.00;99.90;;;;;;5093805;28;20155;-63
2022/03/24 01:57:48;;;;;;;27.60;16.60;;;4.90;99.90;;;;;;5093777;28;20178;-64
2022/03/24 02:00:14;;;;;;;29.27;15.70;;;4.80;99.90;;;;;;5094346;28;20529;-64
2022/03/24 02:02:42;;;;;;;25.57;15.57;;;4.90;99.90;;;;;;5093797;28;20199;-63
2022/03/24 02:05:08;;;;;;;27.73;16.33;;;4.90;99.90;;;;;;5093725;28;20170;-63
2022/03/24 02:07:34;;;;;;;26.30;15.73;;;4.90;99.90;;;;;;5093608;28;20202;-63
2022/03/24 02:10:01;;;;;;;28.57;15.63;;;4.80;99.90;;;;;;5094350;28;20169;-65
2022/03/24 02:12:27;;;;;;;25.63;13.83;;;4.80;99.90;;;;;;5094623;28;20166;-63
2022/03/24 02:14:58;;;;;;;25.37;15.07;;;4.80;99.90;;;;;;5100034;28;20173;-65
2022/03/24 02:17:28;;;;;;;23.23;13.70;;;4.80;99.90;;;;;;5101075;28;20265;-64
2022/03/24 02:19:54;;;;;;;27.17;15.70;;;4.80;99.90;;;;;;5101759;28;20173;-64
2022/03/24 02:22:20;;;;;;;19.97;12.40;;;4.80;99.90;;;;;;5093339;28;20270;-64
2022/03/24 02:24:45;;;;;;;26.63;15.53;;;4.90;99.90;;;;;;5101407;28;20254;-63
2022/03/24 02:27:11;;;;;;;25.87;15.47;;;4.90;99.90;;;;;;5097664;28;20198;-64
2022/03/24 02:29:37;;;;;;;23.00;15.13;;;4.80;99.90;;;;;;5094183;28;20241;-65
2022/03/24 02:32:08;;;;;;;28.00;15.33;;;4.80;99.90;;;;;;5095170;28;20192;-65
2022/03/24 02:34:37;;;;;;;26.43;15.47;;;4.70;99.90;;;;;;5094023;28;20161;-67
2022/03/24 02:37:10;;;;;;;22.27;14.40;;;4.70;99.90;;;;;;5093583;28;20175;-65
2022/03/24 02:39:53;;;;;;;27.20;16.80;;;4.70;99.90;;;;;;5095988;28;20155;-64
2022/03/24 02:42:21;;;;;;;27.37;16.20;;;4.50;99.90;;;;;;5101195;28;20188;-64
2022/03/24 02:44:53;;;;;;;25.33;15.03;;;4.50;99.90;;;;;;5096395;28;20595;-64
2022/03/24 02:47:18;;;;;;;23.83;14.60;;;4.60;99.90;;;;;;5093755;28;20212;-65
2022/03/24 02:49:46;;;;;;;27.23;15.47;;;4.60;99.90;;;;;;5093696;28;20171;-64
2022/03/24 02:52:12;;;;;;;28.90;15.83;;;4.40;99.90;;;;;;5071589;28;20229;-65
2022/03/24 02:54:38;;;;;;;25.23;14.43;;;4.20;99.90;;;;;;5073035;28;20560;-64
2022/03/24 02:57:05;;;;;;;28.67;16.10;;;4.10;99.90;;;;;;5072753;28;20179;-64
2022/03/24 02:59:31;;;;;;;25.40;14.93;;;4.10;99.90;;;;;;5073806;28;20263;-64
2022/03/24 03:02:01;;;;;;;27.90;15.53;;;4.00;99.90;;;;;;5073326;28;20194;-65
2022/03/24 03:04:28;;;;;;;26.40;15.80;;;4.10;99.90;;;;;;5073034;28;20605;-63
2022/03/24 03:06:54;;;;;;;25.93;15.53;;;4.00;99.90;;;;;;5076981;28;20200;-64
2022/03/24 03:09:23;;;;;;;28.00;16.57;;;4.00;99.90;;;;;;5077171;28;20190;-64
2022/03/24 03:11:51;;;;;;;25.77;16.30;;;3.80;99.90;;;;;;5076760;28;20166;-63
2022/03/24 03:14:19;;;;;;;28.17;16.80;;;3.90;99.90;;;;;;5076683;28;20171;-64
2022/03/24 03:16:45;;;;;;;29.13;16.57;;;3.90;99.90;;;;;;5076423;28;20220;-64
2022/03/24 03:19:12;;;;;;;27.17;16.60;;;3.90;99.90;;;;;;5076259;28;20588;-64
2022/03/24 03:21:39;;;;;;;24.43;15.30;;;3.80;99.90;;;;;;5076480;28;20177;-64
2022/03/24 03:24:06;;;;;;;26.50;15.53;;;3.80;99.90;;;;;;5058929;28;20273;-63
2022/03/24 03:26:32;;;;;;;29.90;17.00;;;3.90;99.90;;;;;;5076580;28;20202;-64
2022/03/24 03:28:58;;;;;;;25.73;15.47;;;3.90;99.90;;;;;;5076413;28;20175;-64
2022/03/24 03:31:24;;;;;;;26.20;15.50;;;3.90;99.90;;;;;;5076488;28;20187;-64
2022/03/24 03:33:51;;;;;;;26.53;16.87;;;3.90;99.90;;;;;;5076159;28;20184;-64
2022/03/24 03:36:18;;;;;;;30.03;17.13;;;4.00;99.90;;;;;;5077174;28;20181;-63
2022/03/24 03:38:45;;;;;;;27.93;16.20;;;3.80;99.90;;;;;;5057964;28;20276;-64
2022/03/24 03:41:12;;;;;;;30.80;15.67;;;3.80;99.90;;;;;;5058942;28;20600;-64
2022/03/24 03:43:37;;;;;;;32.50;16.00;;;3.80;99.90;;;;;;5062120;28;20180;-64
2022/03/24 03:46:03;;;;;;;28.63;16.43;;;3.90;99.90;;;;;;5055918;28;20217;-65
2022/03/24 03:48:30;;;;;;;28.93;16.73;;;3.90;99.90;;;;;;5056146;28;20168;-64
2022/03/24 03:50:57;;;;;;;31.10;17.43;;;3.80;99.90;;;;;;5056474;28;20166;-64
2022/03/24 03:53:23;;;;;;;27.77;16.63;;;3.70;99.90;;;;;;5069209;28;20224;-64
2022/03/24 03:55:49;;;;;;;30.53;16.77;;;3.60;99.90;;;;;;5076703;28;20213;-64
2022/03/24 03:58:15;;;;;;;30.83;16.10;;;3.60;99.90;;;;;;5076755;28;20547;-64
2022/03/24 04:00:55;;;;;;;33.33;16.67;;;3.50;99.90;;;;;;5075808;28;20159;-63
2022/03/24 04:03:32;;;;;;;26.73;15.73;;;3.50;99.90;;;;;;5075937;28;20152;-65
2022/03/24 04:06:10;;;;;;;37.30;17.03;;;3.50;99.90;;;;;;5075972;28;20662;-64
2022/03/24 04:08:37;;;;;;;28.90;16.50;;;3.50;99.90;;;;;;5075939;28;20198;-65
2022/03/24 04:11:07;;;;;;;30.67;15.87;;;3.50;99.90;;;;;;5076327;28;20480;-64
2022/03/24 04:13:34;;;;;;;26.93;16.67;;;3.40;99.90;;;;;;5075629;28;20172;-64
2022/03/24 04:16:01;;;;;;;30.80;15.57;;;3.40;99.90;;;;;;5075639;28;20220;-64
2022/03/24 04:18:26;;;;;;;30.70;17.63;;;3.30;99.90;;;;;;5075947;28;20166;-64
2022/03/24 04:20:52;;;;;;;28.27;17.33;;;3.30;99.90;;;;;;5075629;28;20175;-64
2022/03/24 04:23:19;;;;;;;37.00;17.33;;;3.30;99.90;;;;;;5072740;28;20620;-64
2022/03/24 04:25:46;;;;;;;29.97;16.77;;;3.30;99.90;;;;;;5100732;28;20162;-65
2022/03/24 04:28:12;;;;;;;31.97;18.03;;;3.30;99.90;;;;;;5101860;28;20780;-63
2022/03/24 04:30:38;;;;;;;34.43;18.90;;;3.30;99.90;;;;;;5085020;28;20622;-63
2022/03/24 04:33:04;;;;;;;30.80;18.17;;;3.20;99.90;;;;;;5102095;28;20181;-63
2022/03/24 04:35:31;;;;;;;30.83;17.33;;;3.30;99.90;;;;;;5096002;28;20171;-63
2022/03/24 04:37:57;;;;;;;29.47;16.33;;;3.40;99.90;;;;;;5077716;28;20187;-63
2022/03/24 04:40:24;;;;;;;34.30;17.03;;;3.40;99.90;;;;;;5077845;28;20182;-64
2022/03/24 04:42:51;;;;;;;30.33;17.83;;;3.30;99.90;;;;;;5100269;28;20257;-63
2022/03/24 04:45:18;;;;;;;28.77;16.67;;;3.40;99.90;;;;;;5098984;28;20163;-65
2022/03/24 04:47:45;;;;;;;30.87;17.10;;;3.20;99.90;;;;;;5100853;28;20223;-65
2022/03/24 04:50:12;;;;;;;30.27;18.07;;;3.20;99.90;;;;;;5101463;28;20220;-65
2022/03/24 04:52:38;;;;;;;32.37;17.87;;;3.10;99.90;;;;;;5099432;28;20662;-64
2022/03/24 04:55:07;;;;;;;27.33;17.57;;;3.20;99.90;;;;;;5100666;28;20167;-63
2022/03/24 04:57:33;;;;;;;32.67;17.50;;;3.10;99.90;;;;;;5084377;28;20232;-64
2022/03/24 04:59:58;;;;;;;34.33;17.23;;;3.10;99.90;;;;;;5100732;28;20268;-64
2022/03/24 05:02:25;;;;;;;28.67;17.27;;;3.10;99.90;;;;;;5096799;28;20159;-65
2022/03/24 05:04:52;;;;;;;31.50;17.10;;;3.20;99.90;;;;;;5076834;28;20188;-63
2022/03/24 05:07:18;;;;;;;31.17;17.70;;;3.10;99.90;;;;;;5095767;28;20545;-64
2022/03/24 05:09:52;;;;;;;28.20;16.13;;;3.20;99.90;;;;;;5096641;28;20231;-64
2022/03/24 05:12:18;;;;;;;27.50;16.80;;;3.10;99.90;;;;;;5098512;28;20156;-63
2022/03/24 05:14:44;;;;;;;31.27;17.60;;;3.20;99.90;;;;;;5100037;28;20178;-63
2022/03/24 05:17:10;;;;;;;29.40;17.00;;;3.10;99.90;;;;;;5100101;28;20183;-64
2022/03/24 05:19:35;;;;;;;30.40;18.37;;;3.20;99.90;;;;;;5100217;28;20164;-64
2022/03/24 05:22:02;;;;;;;36.20;17.83;;;3.10;99.90;;;;;;5101561;28;20218;-63
2022/03/24 05:24:28;;;;;;;30.00;17.37;;;3.10;99.90;;;;;;5098538;28;20186;-64
2022/03/24 05:26:53;;;;;;;31.30;18.67;;;3.10;99.90;;;;;;5094731;28;20645;-64
2022/03/24 05:29:19;;;;;;;31.27;17.33;;;3.20;99.90;;;;;;5093857;28;20169;-63
2022/03/24 05:31:45;;;;;;;28.83;17.73;;;3.20;99.90;;;;;;5094431;28;20202;-65
2022/03/24 05:34:11;;;;;;;30.37;17.73;;;3.10;99.90;;;;;;5094405;28;20178;-64
2022/03/24 05:36:37;;;;;;;30.97;18.53;;;3.10;99.90;;;;;;5094477;28;20178;-65
2022/03/24 05:39:03;;;;;;;27.00;16.50;;;3.20;99.90;;;;;;5094258;28;20508;-63
2022/03/24 05:41:30;;;;;;;28.13;17.00;;;3.20;99.90;;;;;;5094835;28;20508;-64
2022/03/24 05:44:04;;;;;;;33.87;17.13;;;3.20;99.90;;;;;;5094554;28;20168;-63
2022/03/24 05:46:34;;;;;;;26.93;16.03;;;3.10;99.90;;;;;;5094989;28;20195;-64
2022/03/24 05:49:01;;;;;;;30.83;17.57;;;3.30;99.90;;;;;;5095055;28;20165;-64
2022/03/24 05:51:27;;;;;;;27.23;16.60;;;3.30;99.90;;;;;;5094438;28;20171;-65
2022/03/24 05:53:53;;;;;;;26.50;16.37;;;3.40;99.90;;;;;;5095145;28;20317;-63
2022/03/24 05:56:19;;;;;;;28.83;16.57;;;3.30;99.90;;;;;;5096873;28;20198;-63
2022/03/24 05:58:45;;;;;;;31.33;17.23;;;3.30;99.90;;;;;;5097348;28;20257;-64
2022/03/24 06:01:14;;;;;;;27.23;15.70;;;3.30;99.90;;;;;;5097020;28;20529;-64
2022/03/24 06:03:39;;;;;;;30.00;16.63;;;3.40;99.90;;;;;;5096017;28;20169;-66
2022/03/24 06:06:06;;;;;;;29.87;18.03;;;3.50;99.90;;;;;;5095375;28;20175;-64
2022/03/24 06:08:33;;;;;;;27.13;16.43;;;3.40;99.90;;;;;;5094991;28;20167;-63
2022/03/24 06:11:00;;;;;;;30.03;17.13;;;3.60;99.90;;;;;;5094786;28;20166;-64
2022/03/24 06:13:26;;;;;;;27.07;16.83;;;3.60;99.90;;;;;;5093551;28;20166;-63
2022/03/24 06:15:53;;;;;;;27.93;16.50;;;3.60;99.90;;;;;;5093384;28;20157;-64
2022/03/24 06:18:20;;;;;;;24.60;16.73;;;3.60;99.90;;;;;;5094491;28;20493;-63
2022/03/24 06:20:45;;;;;;;29.07;17.03;;;3.70;99.90;;;;;;5094160;28;20167;-64
2022/03/24 06:23:11;;;;;;;27.30;16.70;;;3.80;99.90;;;;;;5093844;28;20184;-64
2022/03/24 06:25:37;;;;;;;30.80;16.93;;;3.70;99.90;;;;;;5093554;28;20188;-64
2022/03/24 06:28:05;;;;;;;31.53;16.00;;;3.80;99.90;;;;;;5093519;28;20222;-63
2022/03/24 06:30:31;;;;;;;29.47;16.80;;;3.70;99.90;;;;;;5094353;28;20181;-64
2022/03/24 06:32:57;;;;;;;29.07;16.93;;;3.90;99.90;;;;;;5093883;28;20159;-65
2022/03/24 06:35:24;;;;;;;26.07;15.93;;;4.20;99.90;;;;;;5094147;28;20173;-64
2022/03/24 06:37:51;;;;;;;25.73;15.60;;;4.40;99.90;;;;;;5094339;28;20187;-65
2022/03/24 06:40:18;;;;;;;29.13;15.10;;;4.30;99.90;;;;;;5097053;28;20175;-65
2022/03/24 06:42:44;;;;;;;36.57;15.83;;;4.30;99.90;;;;;;5098156;28;20160;-64
2022/03/24 06:45:12;;;;;;;23.93;14.57;;;4.30;99.90;;;;;;5100021;28;20183;-64
2022/03/24 06:47:41;;;;;;;26.53;14.47;;;4.50;99.90;;;;;;5084188;28;20208;-65
2022/03/24 06:50:13;;;;;;;27.07;15.37;;;4.70;99.90;;;;;;5103475;28;20175;-65
2022/03/24 06:52:39;;;;;;;29.47;15.83;;;4.70;99.90;;;;;;5079163;28;20277;-63
2022/03/24 06:55:06;;;;;;;22.93;12.53;;;4.80;99.90;;;;;;5081105;28;20209;-64
2022/03/24 06:57:32;;;;;;;27.20;14.63;;;4.90;99.90;;;;;;5077221;28;20174;-64
2022/03/24 06:59:58;;;;;;;24.10;14.80;;;4.70;99.90;;;;;;5077249;28;20685;-64
2022/03/24 07:02:23;;;;;;;27.13;15.90;;;4.90;99.90;;;;;;5077414;28;20217;-63
2022/03/24 07:04:49;;;;;;;21.90;12.17;;;4.90;99.90;;;;;;5077321;28;20174;-64
2022/03/24 07:07:15;;;;;;;26.30;16.90;;;5.00;99.90;;;;;;5077840;28;20210;-64
2022/03/24 07:09:40;;;;;;;26.70;15.63;;;5.00;99.90;;;;;;5082021;28;20160;-65
2022/03/24 07:12:06;;;;;;;25.50;15.97;;;5.10;99.90;;;;;;5084029;28;20619;-64
2022/03/24 07:14:32;;;;;;;21.53;12.97;;;5.30;99.90;;;;;;5060340;28;20185;-65
2022/03/24 07:16:58;;;;;;;29.03;11.83;;;5.30;99.90;;;;;;5059753;28;20169;-64
2022/03/24 07:19:24;;;;;;;25.73;14.80;;;5.30;99.90;;;;;;5077007;28;20243;-65
2022/03/24 07:21:50;;;;;;;19.77;12.13;;;5.40;99.90;;;;;;5077617;28;20199;-64
2022/03/24 07:24:15;;;;;;;28.63;13.13;;;5.60;99.90;;;;;;5076888;28;20565;-65
2022/03/24 07:26:41;;;;;;;18.17;11.73;;;5.60;99.90;;;;;;5079706;28;20204;-64
2022/03/24 07:29:10;;;;;;;21.40;12.20;;;5.80;99.90;;;;;;5060652;28;20181;-64
2022/03/24 07:31:36;;;;;;;30.00;14.03;;;6.10;99.90;;;;;;5078262;28;20186;-64
2022/03/24 07:34:02;;;;;;;31.23;11.93;;;6.20;99.90;;;;;;5077405;28;20166;-63
2022/03/24 07:36:28;;;;;;;24.10;13.27;;;6.40;99.90;;;;;;5076412;28;20210;-66
2022/03/24 07:38:56;;;;;;;27.33;12.97;;;6.50;99.90;;;;;;5075991;28;20199;-63
2022/03/24 07:41:22;;;;;;;21.90;12.63;;;6.60;99.90;;;;;;5076787;28;20574;-64
2022/03/24 07:43:48;;;;;;;30.03;12.67;;;6.70;99.90;;;;;;5076334;28;20156;-63
2022/03/24 07:46:14;;;;;;;22.37;14.23;;;6.80;99.90;;;;;;5076212;28;20550;-64
2022/03/24 07:48:40;;;;;;;25.40;13.50;;;6.70;99.90;;;;;;5058759;28;20181;-64
2022/03/24 07:51:07;;;;;;;23.57;13.40;;;6.80;99.90;;;;;;5076130;28;20560;-65
2022/03/24 07:53:50;;;;;;;24.80;14.50;;;6.90;99.90;;;;;;5091638;28;20285;-65
2022/03/24 07:56:17;;;;;;;26.87;15.70;;;7.00;99.90;;;;;;5063909;28;20172;-75
2022/03/24 07:58:43;;;;;;;25.50;13.93;;;7.20;99.90;;;;;;5096403;28;20249;-64
2022/03/24 08:01:10;;;;;;;30.57;16.17;;;7.40;99.90;;;;;;5096656;28;20195;-65
2022/03/24 08:03:36;;;;;;;30.30;16.27;;;7.50;99.90;;;;;;5096553;28;20162;-64
2022/03/24 08:06:02;;;;;;;28.87;16.20;;;7.70;99.90;;;;;;5098570;28;20589;-64
2022/03/24 08:08:29;;;;;;;26.93;15.33;;;7.60;99.90;;;;;;5099662;28;20162;-66
2022/03/24 08:10:55;;;;;;;26.47;15.10;;;7.70;99.90;;;;;;5082996;28;20181;-64
2022/03/24 08:13:22;;;;;;;27.67;14.60;;;7.90;99.90;;;;;;5099266;28;20169;-64
2022/03/24 08:15:49;;;;;;;34.20;15.33;;;8.00;99.90;;;;;;5099926;28;20163;-65
2022/03/24 08:18:15;;;;;;;24.27;15.17;;;8.30;99.90;;;;;;5098102;28;20170;-65
2022/03/24 08:20:43;;;;;;;28.50;16.80;;;8.50;99.90;;;;;;5096556;28;20178;-64
2022/03/24 08:23:10;;;;;;;27.97;16.07;;;8.80;99.90;;;;;;5095968;28;20164;-64
2022/03/24 08:25:38;;;;;;;25.53;15.43;;;8.70;99.90;;;;;;5078164;28;20186;-64
2022/03/24 08:28:04;;;;;;;25.20;15.00;;;8.80;99.90;;;;;;5077494;28;20194;-65
2022/03/24 08:30:30;;;;;;;34.53;16.80;;;9.00;99.90;;;;;;5095419;28;20167;-65
2022/03/24 08:32:55;;;;;;;30.60;16.70;;;8.90;99.90;;;;;;5095921;28;20166;-65
2022/03/24 08:35:21;;;;;;;28.43;16.27;;;9.10;99.90;;;;;;5096056;28;20192;-65
2022/03/24 08:37:47;;;;;;;24.63;15.50;;;9.20;99.90;;;;;;5096233;28;20172;-64
2022/03/24 08:40:13;;;;;;;31.40;17.03;;;9.60;99.90;;;;;;5095672;28;20171;-64
2022/03/24 08:42:41;;;;;;;31.73;16.90;;;9.70;99.90;;;;;;5095442;28;20174;-65
2022/03/24 08:45:09;;;;;;;35.13;18.97;;;9.80;99.90;;;;;;5077519;28;20257;-64
2022/03/24 08:47:35;;;;;;;27.87;16.20;;;9.90;99.40;;;;;;5094796;28;20203;-65
2022/03/24 08:50:02;;;;;;;33.70;17.23;;;10.20;98.30;;;;;;5095371;28;20234;-65
2022/03/24 08:52:28;;;;;;;31.83;18.00;;;10.20;97.30;;;;;;5094991;28;20325;-65
2022/03/24 08:54:54;;;;;;;34.07;17.83;;;10.20;96.80;;;;;;5095368;28;20615;-65
2022/03/24 08:57:26;;;;;;;26.83;16.83;;;10.50;96.20;;;;;;5095466;28;20216;-65
2022/03/24 08:59:53;;;;;;;25.90;16.60;;;10.60;95.60;;;;;;5095187;28;20167;-66
2022/03/24 09:02:20;;;;;;;31.53;17.63;;;10.70;95.00;;;;;;5094026;28;20187;-64
2022/03/24 09:04:46;;;;;;;41.87;18.63;;;10.90;94.40;;;;;;5094501;28;20174;-65
2022/03/24 09:07:12;;;;;;;28.60;17.27;;;10.90;93.80;;;;;;5094689;28;20190;-64
2022/03/24 09:09:38;;;;;;;33.00;18.33;;;11.10;93.20;;;;;;5094915;28;20220;-65
2022/03/24 09:12:04;;;;;;;31.00;18.37;;;11.30;92.10;;;;;;5094875;28;20182;-64
2022/03/24 09:14:29;;;;;;;28.50;16.53;;;11.40;90.80;;;;;;5094942;28;20167;-66
2022/03/24 09:16:55;;;;;;;31.17;18.07;;;11.50;90.10;;;;;;5095322;28;20165;-67
2022/03/24 09:19:20;;;;;;;33.30;18.17;;;11.60;90.00;;;;;;5095097;28;20583;-66
2022/03/24 09:21:46;;;;;;;36.50;19.27;;;11.50;90.20;;;;;;5078875;28;20220;-64
2022/03/24 09:24:12;;;;;;;35.03;18.40;;;11.70;89.50;;;;;;5097459;28;20166;-65
2022/03/24 09:26:37;;;;;;;31.47;18.83;;;12.00;89.20;;;;;;5096971;28;20350;-65
2022/03/24 09:29:03;;;;;;;37.27;18.10;;;12.10;87.70;;;;;;5096861;28;20514;-66
2022/03/24 09:31:29;;;;;;;36.70;17.83;;;12.00;86.40;;;;;;5095921;28;20198;-66
2022/03/24 09:33:55;;;;;;;32.40;17.60;;;12.00;87.20;;;;;;5097354;28;20171;-66
2022/03/24 09:36:22;;;;;;;35.90;19.00;;;12.30;86.50;;;;;;5100254;28;20187;-66
2022/03/24 09:38:47;;;;;;;32.27;17.90;;;12.40;85.40;;;;;;5094712;28;20167;-65
2022/03/24 09:41:14;;;;;;;33.73;18.40;;;12.60;86.60;;;;;;5093950;28;20635;-65
2022/03/24 09:43:41;;;;;;;34.67;19.10;;;12.60;85.40;;;;;;5094468;28;20174;-65
2022/03/24 09:46:08;;;;;;;39.20;19.40;;;12.70;85.10;;;;;;5093781;28;20159;-65
2022/03/24 09:48:34;;;;;;;39.07;18.80;;;12.90;84.90;;;;;;5093897;28;20597;-65
2022/03/24 09:51:00;;;;;;;32.20;18.30;;;12.80;82.90;;;;;;5076322;28;20171;-65
2022/03/24 09:53:25;;;;;;;30.60;18.63;;;12.80;84.30;;;;;;5094867;28;20226;-64
2022/03/24 09:55:51;;;;;;;31.00;18.67;;;13.00;83.40;;;;;;5094236;28;20159;-65
2022/03/24 09:58:17;;;;;;;36.07;19.40;;;13.20;82.50;;;;;;5094411;28;20287;-65
2022/03/24 10:00:43;;;;;;;37.23;18.90;;;13.60;81.60;;;;;;5094210;28;20595;-65
2022/03/24 10:03:09;;;;;;;33.57;19.93;;;13.80;80.50;;;;;;5058821;28;20290;-65
2022/03/24 10:05:36;;;;;;;31.43;18.17;;;13.90;79.00;;;;;;5073687;28;20533;-66
2022/03/24 10:08:06;;;;;;;32.73;17.83;;;14.00;78.60;;;;;;5074056;28;20648;-66
2022/03/24 10:10:34;;;;;;;31.50;18.60;;;14.00;77.60;;;;;;5073878;28;20163;-65
2022/03/24 10:13:01;;;;;;;33.17;17.97;;;14.20;76.20;;;;;;5074031;28;20172;-67
2022/03/24 10:15:28;;;;;;;30.93;18.93;;;13.90;74.70;;;;;;5072664;28;20220;-65
2022/03/24 10:17:57;;;;;;;33.17;19.43;;;14.00;76.00;;;;;;5072910;28;20235;-65
2022/03/24 10:20:28;;;;;;;31.83;18.67;;;14.20;74.10;;;;;;5073268;28;20156;-65
2022/03/24 10:23:04;;;;;;;35.93;19.03;;;14.30;73.90;;;;;;5073431;28;20167;-65
2022/03/24 10:25:35;;;;;;;32.80;18.90;;;14.30;72.80;;;;;;5073051;28;20163;-65
2022/03/24 10:28:12;;;;;;;30.23;18.43;;;14.50;72.10;;;;;;5073813;28;20187;-65
2022/03/24 10:30:54;;;;;;;42.93;19.80;;;14.50;70.40;;;;;;5073552;28;20170;-65
2022/03/24 10:33:32;;;;;;;30.53;17.10;;;14.60;70.10;;;;;;5055746;28;20217;-66
2022/03/24 10:36:19;;;;;;;36.23;19.20;;;14.80;68.70;;;;;;5073079;28;20208;-66
2022/03/24 10:38:54;;;;;;;33.93;18.60;;;15.00;68.20;;;;;;5073823;28;20163;-66
2022/03/24 10:41:28;;;;;;;27.80;18.20;;;15.20;67.10;;;;;;5073867;28;20205;-64
2022/03/24 10:43:55;;;;;;;33.43;16.47;;;15.20;64.20;;;;;;5075162;28;20259;-63
2022/03/24 10:46:29;;;;;;;27.30;15.27;;;15.20;61.40;;;;;;5075550;28;20195;-65
2022/03/24 10:48:54;;;;;;;26.03;15.90;;;15.20;59.70;;;;;;5075633;28;20209;-64
2022/03/24 10:51:28;;;;;;;29.40;15.03;;;15.40;59.00;;;;;;5075276;28;20604;-65
2022/03/24 10:54:23;;;;;;;23.23;15.03;;;15.70;58.50;;;;;;5073529;28;20545;-65
2022/03/24 10:56:57;;;;;;;30.90;14.83;;;15.80;57.10;;;;;;5061560;28;20203;-65
2022/03/24 10:59:30;;;;;;;23.43;15.10;;;15.80;56.60;;;;;;5073497;28;20155;-66
2022/03/24 11:01:56;;;;;;;22.60;14.50;;;15.60;56.20;;;;;;5075355;28;20206;-66
2022/03/24 11:04:21;;;;;;;22.90;13.57;;;15.60;55.80;;;;;;5073032;28;20172;-66
2022/03/24 11:06:49;;;;;;;19.97;12.57;;;15.50;53.90;;;;;;5089247;28;20672;-65
2022/03/24 11:09:22;;;;;;;19.63;13.07;;;15.50;51.90;;;;;;5113405;28;20248;-65
2022/03/24 11:11:47;;;;;;;20.27;13.07;;;15.50;50.00;;;;;;5113425;28;20162;-66
2022/03/24 11:14:15;;;;;;;26.70;15.57;;;15.50;49.60;;;;;;5113658;28;20509;-70
2022/03/24 11:16:41;;;;;;;28.90;17.53;;;16.10;54.40;;;;;;5114307;28;20608;-71
2022/03/24 11:19:15;;;;;;;22.27;14.57;;;16.40;54.10;;;;;;5114733;28;20253;-65
2022/03/24 11:21:51;;;;;;;27.80;13.77;;;15.90;48.90;;;;;;5114511;28;20158;-66
2022/03/24 11:24:17;;;;;;;22.63;13.47;;;15.90;48.90;;;;;;5114800;28;20169;-66
2022/03/24 11:26:43;;;;;;;24.23;13.80;;;15.90;48.40;;;;;;5115963;28;20205;-66
2022/03/24 11:29:10;;;;;;;25.17;14.80;;;15.90;48.90;;;;;;5117987;28;20593;-65
2022/03/24 11:31:36;;;;;;;26.50;13.77;;;15.80;48.10;;;;;;5116875;28;20169;-65
2022/03/24 11:34:04;;;;;;;20.00;12.47;;;16.10;47.70;;;;;;5117291;28;20249;-64
2022/03/24 11:36:31;;;;;;;19.80;12.13;;;16.10;46.10;;;;;;5119440;28;20181;-65
2022/03/24 11:39:01;;;;;;;19.30;11.77;;;15.90;42.80;;;;;;5118137;28;20253;-66
2022/03/24 11:41:33;;;;;;;19.93;12.33;;;15.90;42.30;;;;;;5117520;28;20162;-67
2022/03/24 11:44:10;;;;;;;18.63;11.73;;;16.10;42.80;;;;;;5099925;28;20519;-65
2022/03/24 11:46:49;;;;;;;19.87;11.73;;;16.30;41.60;;;;;;5118207;28;20204;-65
2022/03/24 11:49:26;;;;;;;19.60;11.80;;;16.10;39.20;;;;;;5117985;28;20162;-65
2022/03/24 11:51:57;;;;;;;21.80;12.43;;;16.30;39.20;;;;;;5118593;28;20165;-66
2022/03/24 11:54:48;;;;;;;22.40;12.77;;;16.40;39.40;;;;;;5101951;28;20163;-69
2022/03/24 11:57:33;;;;;;;19.47;13.47;;;16.40;39.20;;;;;;5098295;28;20246;-64
2022/03/24 12:00:14;;;;;;;19.83;12.27;;;16.10;40.50;;;;;;5096695;28;20162;-66
2022/03/24 12:02:43;;;;;;;19.27;11.77;;;16.10;40.60;;;;;;5098150;28;20163;-70
2022/03/24 12:05:10;;;;;;;20.07;12.13;;;16.20;40.00;;;;;;5098298;28;20170;-68
2022/03/24 12:07:37;;;;;;;20.60;12.05;;;16.40;39.50;;;;;;5100144;28;20201;-65
2022/03/24 12:10:14;;;;;;;20.00;11.90;;;16.60;38.80;;;;;;5099506;28;20163;-65
2022/03/24 12:13:00;;;;;;;20.60;13.10;;;16.60;39.10;;;;;;5097075;28;20170;-65
2022/03/24 12:15:26;;;;;;;20.98;12.65;;;16.50;38.80;;;;;;5077742;28;20175;-66
2022/03/24 12:18:06;;;;;;;22.87;14.40;;;16.50;39.50;;;;;;5096011;28;20166;-65
2022/03/24 12:20:46;;;;;;;24.20;13.77;;;16.70;39.80;;;;;;5095925;28;20170;-65
2022/03/24 12:23:11;;;;;;;21.10;14.10;;;16.60;39.80;;;;;;5095864;28;20163;-66
2022/03/24 12:25:39;;;;;;;25.88;13.85;;;16.50;39.30;;;;;;5097712;28;20523;-66
2022/03/24 12:28:10;;;;;;;24.08;14.40;;;16.80;39.40;;;;;;5099624;28;20212;-66
2022/03/24 12:31:15;;;;;;;21.10;13.95;;;16.60;40.10;;;;;;5096095;28;20167;-68
2022/03/24 12:33:49;;;;;;;24.65;14.70;;;16.80;39.00;;;;;;5075697;28;20265;-67
2022/03/24 12:36:39;;;;;;;24.23;14.30;;;16.80;39.30;;;;;;5095613;28;20210;-67